sensor_id;sensor_type;location;lat;lon;timestamp;P1;durP1;ratioP1;P2;durP2;ratioP2
54699;SDS011;40599;53.132;6.090;2023-03-12T00:00:40;14.50;;;9.73;;
54699;SDS011;40599;53.132;6.090;2023-03-12T00:03:07;15.63;;;10.45;;
54699;SDS011;40599;53.132;6.090;2023-03-12T00:05:35;14.48;;;7.88;;
54699;SDS011;40599;53.132;6.090;2023-03-12T00:08:02;12.18;;;9.27;;
54699;SDS011;40599;53.132;6.090;2023-03-12T00:10:28;12.32;;;9.38;;
54699;SDS011;40599;53.132;6.090;2023-03-12T00:12:54;17.60;;;9.77;;
54699;SDS011;40599;53.132;6.090;2023-03-12T00:15:21;18.70;;;10.15;;
54699;SDS011;40599;53.132;6.090;2023-03-12T00:17:47;14.88;;;9.77;;
54699;SDS011;40599;53.132;6.090;2023-03-12T00:20:13;16.38;;;9.70;;
54699;SDS011;40599;53.132;6.090;2023-03-12T00:22:39;13.93;;;9.57;;
54699;SDS011;40599;53.132;6.090;2023-03-12T00:25:06;12.30;;;9.88;;
54699;SDS011;40599;53.132;6.090;2023-03-12T00:27:33;16.98;;;9.52;;
54699;SDS011;40599;53.132;6.090;2023-03-12T00:29:59;14.45;;;9.07;;
54699;SDS011;40599;53.132;6.090;2023-03-12T00:32:25;11.23;;;9.35;;
54699;SDS011;40599;53.132;6.090;2023-03-12T00:34:54;15.05;;;9.75;;
54699;SDS011;40599;53.132;6.090;2023-03-12T00:37:20;13.85;;;9.15;;
54699;SDS011;40599;53.132;6.090;2023-03-12T00:39:47;15.70;;;8.80;;
54699;SDS011;40599;53.132;6.090;2023-03-12T00:42:13;18.40;;;10.15;;
54699;SDS011;40599;53.132;6.090;2023-03-12T00:44:39;11.48;;;7.55;;
54699;SDS011;40599;53.132;6.090;2023-03-12T00:47:06;18.20;;;9.55;;
54699;SDS011;40599;53.132;6.090;2023-03-12T00:49:32;13.88;;;8.82;;
54699;SDS011;40599;53.132;6.090;2023-03-12T00:51:58;14.52;;;9.52;;
54699;SDS011;40599;53.132;6.090;2023-03-12T00:54:24;12.48;;;9.02;;
54699;SDS011;40599;53.132;6.090;2023-03-12T00:56:50;13.55;;;8.63;;
54699;SDS011;40599;53.132;6.090;2023-03-12T00:59:16;13.23;;;9.27;;
54699;SDS011;40599;53.132;6.090;2023-03-12T01:01:43;14.52;;;9.50;;
54699;SDS011;40599;53.132;6.090;2023-03-12T01:04:09;15.18;;;9.27;;
54699;SDS011;40599;53.132;6.090;2023-03-12T01:06:35;14.60;;;9.02;;
54699;SDS011;40599;53.132;6.090;2023-03-12T01:09:02;11.75;;;9.10;;
54699;SDS011;40599;53.132;6.090;2023-03-12T01:11:29;30.88;;;10.23;;
54699;SDS011;40599;53.132;6.090;2023-03-12T01:13:57;12.30;;;9.27;;
54699;SDS011;40599;53.132;6.090;2023-03-12T01:18:52;14.02;;;8.40;;
54699;SDS011;40599;53.132;6.090;2023-03-12T01:21:19;12.35;;;8.93;;
54699;SDS011;40599;53.132;6.090;2023-03-12T01:23:45;12.73;;;9.05;;
54699;SDS011;40599;53.132;6.090;2023-03-12T01:26:11;13.88;;;8.38;;
54699;SDS011;40599;53.132;6.090;2023-03-12T01:28:37;19.80;;;9.32;;
54699;SDS011;40599;53.132;6.090;2023-03-12T01:31:10;14.13;;;8.80;;
54699;SDS011;40599;53.132;6.090;2023-03-12T01:33:37;13.07;;;8.73;;
54699;SDS011;40599;53.132;6.090;2023-03-12T01:36:04;12.45;;;8.95;;
54699;SDS011;40599;53.132;6.090;2023-03-12T01:38:30;14.73;;;8.38;;
54699;SDS011;40599;53.132;6.090;2023-03-12T01:40:56;15.07;;;9.20;;
54699;SDS011;40599;53.132;6.090;2023-03-12T01:43:33;12.15;;;8.63;;
54699;SDS011;40599;53.132;6.090;2023-03-12T01:46:01;13.98;;;8.80;;
54699;SDS011;40599;53.132;6.090;2023-03-12T01:48:29;14.63;;;8.73;;
54699;SDS011;40599;53.132;6.090;2023-03-12T01:50:57;15.10;;;8.65;;
54699;SDS011;40599;53.132;6.090;2023-03-12T01:53:23;9.70;;;8.15;;
54699;SDS011;40599;53.132;6.090;2023-03-12T01:55:49;11.95;;;8.48;;
54699;SDS011;40599;53.132;6.090;2023-03-12T01:58:16;15.23;;;9.38;;
54699;SDS011;40599;53.132;6.090;2023-03-12T02:00:42;15.63;;;9.30;;
54699;SDS011;40599;53.132;6.090;2023-03-12T02:03:09;10.13;;;9.05;;
54699;SDS011;40599;53.132;6.090;2023-03-12T02:08:10;14.15;;;9.35;;
54699;SDS011;40599;53.132;6.090;2023-03-12T02:10:37;12.73;;;8.00;;
54699;SDS011;40599;53.132;6.090;2023-03-12T02:13:03;13.52;;;9.20;;
54699;SDS011;40599;53.132;6.090;2023-03-12T02:15:29;13.40;;;8.70;;
54699;SDS011;40599;53.132;6.090;2023-03-12T02:17:55;14.07;;;9.02;;
54699;SDS011;40599;53.132;6.090;2023-03-12T02:25:37;14.23;;;9.25;;
54699;SDS011;40599;53.132;6.090;2023-03-12T02:28:05;18.05;;;9.60;;
54699;SDS011;40599;53.132;6.090;2023-03-12T02:30:32;12.65;;;9.27;;
54699;SDS011;40599;53.132;6.090;2023-03-12T02:32:59;12.65;;;9.13;;
54699;SDS011;40599;53.132;6.090;2023-03-12T02:35:26;18.67;;;10.77;;
54699;SDS011;40599;53.132;6.090;2023-03-12T02:37:53;15.38;;;10.60;;
54699;SDS011;40599;53.132;6.090;2023-03-12T02:40:28;15.75;;;11.10;;
54699;SDS011;40599;53.132;6.090;2023-03-12T02:42:55;18.63;;;11.40;;
54699;SDS011;40599;53.132;6.090;2023-03-12T02:45:21;18.67;;;11.88;;
54699;SDS011;40599;53.132;6.090;2023-03-12T02:47:47;16.65;;;9.82;;
54699;SDS011;40599;53.132;6.090;2023-03-12T02:50:14;18.20;;;11.20;;
54699;SDS011;40599;53.132;6.090;2023-03-12T02:52:40;18.48;;;10.60;;
54699;SDS011;40599;53.132;6.090;2023-03-12T02:55:06;15.88;;;11.27;;
54699;SDS011;40599;53.132;6.090;2023-03-12T02:57:32;15.23;;;10.70;;
54699;SDS011;40599;53.132;6.090;2023-03-12T03:00:05;18.13;;;10.13;;
54699;SDS011;40599;53.132;6.090;2023-03-12T03:02:35;15.57;;;9.95;;
54699;SDS011;40599;53.132;6.090;2023-03-12T03:05:02;16.73;;;9.93;;
54699;SDS011;40599;53.132;6.090;2023-03-12T03:07:28;16.60;;;9.90;;
54699;SDS011;40599;53.132;6.090;2023-03-12T03:09:54;12.05;;;9.32;;
54699;SDS011;40599;53.132;6.090;2023-03-12T03:12:20;10.35;;;9.00;;
54699;SDS011;40599;53.132;6.090;2023-03-12T03:14:47;11.07;;;8.52;;
54699;SDS011;40599;53.132;6.090;2023-03-12T03:17:13;15.98;;;9.23;;
54699;SDS011;40599;53.132;6.090;2023-03-12T03:19:39;12.75;;;8.55;;
54699;SDS011;40599;53.132;6.090;2023-03-12T03:22:06;17.67;;;8.75;;
54699;SDS011;40599;53.132;6.090;2023-03-12T03:24:32;12.13;;;8.77;;
54699;SDS011;40599;53.132;6.090;2023-03-12T03:27:00;10.98;;;9.15;;
54699;SDS011;40599;53.132;6.090;2023-03-12T03:29:26;9.75;;;7.55;;
54699;SDS011;40599;53.132;6.090;2023-03-12T03:31:52;12.32;;;9.32;;
54699;SDS011;40599;53.132;6.090;2023-03-12T03:34:18;9.00;;;8.10;;
54699;SDS011;40599;53.132;6.090;2023-03-12T03:36:45;12.95;;;8.23;;
54699;SDS011;40599;53.132;6.090;2023-03-12T03:39:11;11.82;;;8.50;;
54699;SDS011;40599;53.132;6.090;2023-03-12T03:41:37;10.77;;;8.30;;
54699;SDS011;40599;53.132;6.090;2023-03-12T03:44:03;10.38;;;8.07;;
54699;SDS011;40599;53.132;6.090;2023-03-12T03:46:31;13.02;;;9.05;;
54699;SDS011;40599;53.132;6.090;2023-03-12T03:48:59;16.50;;;8.32;;
54699;SDS011;40599;53.132;6.090;2023-03-12T03:51:25;16.25;;;8.38;;
54699;SDS011;40599;53.132;6.090;2023-03-12T03:53:52;13.48;;;6.80;;
54699;SDS011;40599;53.132;6.090;2023-03-12T03:56:18;10.68;;;7.85;;
54699;SDS011;40599;53.132;6.090;2023-03-12T03:58:44;9.85;;;7.93;;
54699;SDS011;40599;53.132;6.090;2023-03-12T04:01:12;11.98;;;8.82;;
54699;SDS011;40599;53.132;6.090;2023-03-12T04:03:38;12.50;;;8.13;;
54699;SDS011;40599;53.132;6.090;2023-03-12T04:06:05;11.00;;;8.25;;
54699;SDS011;40599;53.132;6.090;2023-03-12T04:08:32;9.52;;;8.52;;
54699;SDS011;40599;53.132;6.090;2023-03-12T04:11:05;12.90;;;7.88;;
54699;SDS011;40599;53.132;6.090;2023-03-12T04:13:31;12.15;;;8.00;;
54699;SDS011;40599;53.132;6.090;2023-03-12T04:15:57;13.07;;;8.05;;
54699;SDS011;40599;53.132;6.090;2023-03-12T04:18:23;13.75;;;8.40;;
54699;SDS011;40599;53.132;6.090;2023-03-12T04:20:50;11.73;;;8.18;;
54699;SDS011;40599;53.132;6.090;2023-03-12T04:26:39;12.98;;;7.60;;
54699;SDS011;40599;53.132;6.090;2023-03-12T04:29:05;10.30;;;7.97;;
54699;SDS011;40599;53.132;6.090;2023-03-12T04:31:31;10.90;;;7.72;;
54699;SDS011;40599;53.132;6.090;2023-03-12T04:33:57;10.73;;;8.20;;
54699;SDS011;40599;53.132;6.090;2023-03-12T04:36:24;13.45;;;7.82;;
54699;SDS011;40599;53.132;6.090;2023-03-12T04:38:50;11.80;;;7.85;;
54699;SDS011;40599;53.132;6.090;2023-03-12T04:41:16;14.63;;;7.63;;
54699;SDS011;40599;53.132;6.090;2023-03-12T04:43:42;15.80;;;8.57;;
54699;SDS011;40599;53.132;6.090;2023-03-12T04:46:08;12.68;;;7.60;;
54699;SDS011;40599;53.132;6.090;2023-03-12T04:48:35;8.68;;;7.65;;
54699;SDS011;40599;53.132;6.090;2023-03-12T04:51:02;11.45;;;7.20;;
54699;SDS011;40599;53.132;6.090;2023-03-12T04:53:29;12.00;;;8.65;;
54699;SDS011;40599;53.132;6.090;2023-03-12T04:55:55;10.75;;;7.30;;
54699;SDS011;40599;53.132;6.090;2023-03-12T04:58:21;9.57;;;7.55;;
54699;SDS011;40599;53.132;6.090;2023-03-12T05:00:48;12.57;;;7.25;;
54699;SDS011;40599;53.132;6.090;2023-03-12T05:03:14;13.13;;;7.60;;
54699;SDS011;40599;53.132;6.090;2023-03-12T05:05:40;12.00;;;7.38;;
54699;SDS011;40599;53.132;6.090;2023-03-12T05:08:06;11.77;;;7.88;;
54699;SDS011;40599;53.132;6.090;2023-03-12T05:10:33;15.00;;;8.00;;
54699;SDS011;40599;53.132;6.090;2023-03-12T05:12:59;13.02;;;7.88;;
54699;SDS011;40599;53.132;6.090;2023-03-12T05:15:25;10.25;;;7.18;;
54699;SDS011;40599;53.132;6.090;2023-03-12T05:17:51;16.08;;;7.53;;
54699;SDS011;40599;53.132;6.090;2023-03-12T05:20:18;11.07;;;7.15;;
54699;SDS011;40599;53.132;6.090;2023-03-12T05:22:44;9.60;;;7.60;;
54699;SDS011;40599;53.132;6.090;2023-03-12T05:25:10;11.15;;;6.57;;
54699;SDS011;40599;53.132;6.090;2023-03-12T05:27:36;15.32;;;7.32;;
54699;SDS011;40599;53.132;6.090;2023-03-12T05:30:04;12.45;;;7.20;;
54699;SDS011;40599;53.132;6.090;2023-03-12T05:32:30;11.95;;;6.95;;
54699;SDS011;40599;53.132;6.090;2023-03-12T05:34:56;13.43;;;7.00;;
54699;SDS011;40599;53.132;6.090;2023-03-12T05:37:22;9.50;;;7.20;;
54699;SDS011;40599;53.132;6.090;2023-03-12T05:39:49;7.82;;;6.72;;
54699;SDS011;40599;53.132;6.090;2023-03-12T05:42:15;9.15;;;6.55;;
54699;SDS011;40599;53.132;6.090;2023-03-12T05:44:41;10.48;;;7.85;;
54699;SDS011;40599;53.132;6.090;2023-03-12T05:47:07;12.68;;;7.40;;
54699;SDS011;40599;53.132;6.090;2023-03-12T05:49:34;14.02;;;6.90;;
54699;SDS011;40599;53.132;6.090;2023-03-12T05:52:00;12.30;;;7.18;;
54699;SDS011;40599;53.132;6.090;2023-03-12T05:54:26;12.13;;;6.90;;
54699;SDS011;40599;53.132;6.090;2023-03-12T05:56:53;11.55;;;7.20;;
54699;SDS011;40599;53.132;6.090;2023-03-12T05:59:20;11.52;;;6.50;;
54699;SDS011;40599;53.132;6.090;2023-03-12T06:01:46;9.20;;;6.72;;
54699;SDS011;40599;53.132;6.090;2023-03-12T06:04:12;8.80;;;7.72;;
54699;SDS011;40599;53.132;6.090;2023-03-12T06:06:39;11.02;;;7.55;;
54699;SDS011;40599;53.132;6.090;2023-03-12T06:09:05;10.00;;;6.97;;
54699;SDS011;40599;53.132;6.090;2023-03-12T06:11:32;11.60;;;7.50;;
54699;SDS011;40599;53.132;6.090;2023-03-12T06:13:58;11.60;;;6.93;;
54699;SDS011;40599;53.132;6.090;2023-03-12T06:16:25;12.23;;;7.93;;
54699;SDS011;40599;53.132;6.090;2023-03-12T06:18:52;10.85;;;7.28;;
54699;SDS011;40599;53.132;6.090;2023-03-12T06:21:20;13.37;;;6.97;;
54699;SDS011;40599;53.132;6.090;2023-03-12T06:23:46;10.90;;;7.22;;
54699;SDS011;40599;53.132;6.090;2023-03-12T06:26:13;8.20;;;6.40;;
54699;SDS011;40599;53.132;6.090;2023-03-12T06:28:39;9.63;;;7.43;;
54699;SDS011;40599;53.132;6.090;2023-03-12T06:31:06;12.18;;;7.40;;
54699;SDS011;40599;53.132;6.090;2023-03-12T06:33:32;11.50;;;6.43;;
54699;SDS011;40599;53.132;6.090;2023-03-12T06:35:59;10.70;;;6.95;;
54699;SDS011;40599;53.132;6.090;2023-03-12T06:43:20;19.55;;;7.88;;
54699;SDS011;40599;53.132;6.090;2023-03-12T06:45:47;10.98;;;7.63;;
54699;SDS011;40599;53.132;6.090;2023-03-12T06:48:13;14.57;;;7.63;;
54699;SDS011;40599;53.132;6.090;2023-03-12T06:50:39;11.30;;;7.70;;
54699;SDS011;40599;53.132;6.090;2023-03-12T06:53:05;9.45;;;7.75;;
54699;SDS011;40599;53.132;6.090;2023-03-12T06:55:31;11.32;;;8.02;;
54699;SDS011;40599;53.132;6.090;2023-03-12T06:57:57;11.13;;;8.05;;
54699;SDS011;40599;53.132;6.090;2023-03-12T07:00:23;9.63;;;8.45;;
54699;SDS011;40599;53.132;6.090;2023-03-12T07:02:50;12.30;;;8.52;;
54699;SDS011;40599;53.132;6.090;2023-03-12T07:05:16;10.50;;;8.82;;
54699;SDS011;40599;53.132;6.090;2023-03-12T07:07:42;12.60;;;8.27;;
54699;SDS011;40599;53.132;6.090;2023-03-12T07:10:10;14.57;;;9.02;;
54699;SDS011;40599;53.132;6.090;2023-03-12T07:12:36;12.20;;;9.40;;
54699;SDS011;40599;53.132;6.090;2023-03-12T07:15:02;23.67;;;9.73;;
54699;SDS011;40599;53.132;6.090;2023-03-12T07:17:29;13.18;;;9.18;;
54699;SDS011;40599;53.132;6.090;2023-03-12T07:19:55;12.40;;;9.02;;
54699;SDS011;40599;53.132;6.090;2023-03-12T07:22:21;11.68;;;9.05;;
54699;SDS011;40599;53.132;6.090;2023-03-12T07:24:47;17.05;;;9.30;;
54699;SDS011;40599;53.132;6.090;2023-03-12T07:27:15;18.75;;;9.85;;
54699;SDS011;40599;53.132;6.090;2023-03-12T07:29:41;10.80;;;8.07;;
54699;SDS011;40599;53.132;6.090;2023-03-12T07:32:08;13.68;;;10.77;;
54699;SDS011;40599;53.132;6.090;2023-03-12T07:34:34;14.20;;;9.98;;
54699;SDS011;40599;53.132;6.090;2023-03-12T07:37:00;15.05;;;10.63;;
54699;SDS011;40599;53.132;6.090;2023-03-12T07:39:26;16.05;;;11.05;;
54699;SDS011;40599;53.132;6.090;2023-03-12T07:41:53;18.55;;;10.90;;
54699;SDS011;40599;53.132;6.090;2023-03-12T07:44:19;13.50;;;10.05;;
54699;SDS011;40599;53.132;6.090;2023-03-12T07:46:45;21.25;;;10.43;;
54699;SDS011;40599;53.132;6.090;2023-03-12T07:49:11;15.77;;;10.57;;
54699;SDS011;40599;53.132;6.090;2023-03-12T07:51:37;17.83;;;11.60;;
54699;SDS011;40599;53.132;6.090;2023-03-12T07:54:04;15.10;;;10.65;;
54699;SDS011;40599;53.132;6.090;2023-03-12T07:56:30;15.20;;;11.40;;
54699;SDS011;40599;53.132;6.090;2023-03-12T07:58:56;21.05;;;11.55;;
54699;SDS011;40599;53.132;6.090;2023-03-12T08:01:22;13.13;;;9.25;;
54699;SDS011;40599;53.132;6.090;2023-03-12T08:03:55;16.55;;;10.90;;
54699;SDS011;40599;53.132;6.090;2023-03-12T08:06:22;16.88;;;11.50;;
54699;SDS011;40599;53.132;6.090;2023-03-12T08:08:48;20.42;;;10.98;;
54699;SDS011;40599;53.132;6.090;2023-03-12T08:11:14;14.90;;;11.05;;
54699;SDS011;40599;53.132;6.090;2023-03-12T08:13:41;16.67;;;11.95;;
54699;SDS011;40599;53.132;6.090;2023-03-12T08:16:07;20.45;;;12.70;;
54699;SDS011;40599;53.132;6.090;2023-03-12T08:18:33;17.27;;;12.40;;
54699;SDS011;40599;53.132;6.090;2023-03-12T08:20:59;18.95;;;11.70;;
54699;SDS011;40599;53.132;6.090;2023-03-12T08:23:25;20.38;;;12.13;;
54699;SDS011;40599;53.132;6.090;2023-03-12T08:25:52;22.55;;;12.15;;
54699;SDS011;40599;53.132;6.090;2023-03-12T08:28:19;19.92;;;11.77;;
54699;SDS011;40599;53.132;6.090;2023-03-12T08:30:49;22.58;;;11.98;;
54699;SDS011;40599;53.132;6.090;2023-03-12T08:33:15;19.52;;;13.10;;
54699;SDS011;40599;53.132;6.090;2023-03-12T08:35:42;25.77;;;14.05;;
54699;SDS011;40599;53.132;6.090;2023-03-12T08:38:08;16.70;;;12.85;;
54699;SDS011;40599;53.132;6.090;2023-03-12T08:40:34;16.60;;;12.95;;
54699;SDS011;40599;53.132;6.090;2023-03-12T08:43:00;18.90;;;13.65;;
54699;SDS011;40599;53.132;6.090;2023-03-12T08:45:26;23.73;;;13.23;;
54699;SDS011;40599;53.132;6.090;2023-03-12T08:47:53;19.77;;;13.55;;
54699;SDS011;40599;53.132;6.090;2023-03-12T08:50:19;18.08;;;13.23;;
54699;SDS011;40599;53.132;6.090;2023-03-12T08:52:47;18.42;;;13.00;;
54699;SDS011;40599;53.132;6.090;2023-03-12T08:55:13;19.05;;;13.43;;
54699;SDS011;40599;53.132;6.090;2023-03-12T08:57:39;19.80;;;13.30;;
54699;SDS011;40599;53.132;6.090;2023-03-12T09:00:06;19.58;;;13.63;;
54699;SDS011;40599;53.132;6.090;2023-03-12T09:02:36;20.23;;;14.70;;
54699;SDS011;40599;53.132;6.090;2023-03-12T09:05:02;20.23;;;13.77;;
54699;SDS011;40599;53.132;6.090;2023-03-12T09:07:32;18.35;;;12.27;;
54699;SDS011;40599;53.132;6.090;2023-03-12T09:09:58;22.77;;;13.63;;
54699;SDS011;40599;53.132;6.090;2023-03-12T09:12:24;18.83;;;12.85;;
54699;SDS011;40599;53.132;6.090;2023-03-12T09:14:50;19.67;;;11.90;;
54699;SDS011;40599;53.132;6.090;2023-03-12T09:17:17;18.48;;;11.45;;
54699;SDS011;40599;53.132;6.090;2023-03-12T09:19:43;22.85;;;11.93;;
54699;SDS011;40599;53.132;6.090;2023-03-12T09:22:09;14.50;;;11.73;;
54699;SDS011;40599;53.132;6.090;2023-03-12T09:24:36;13.77;;;12.13;;
54699;SDS011;40599;53.132;6.090;2023-03-12T09:27:02;18.27;;;12.60;;
54699;SDS011;40599;53.132;6.090;2023-03-12T09:29:29;16.42;;;12.30;;
54699;SDS011;40599;53.132;6.090;2023-03-12T09:31:55;17.23;;;12.80;;
54699;SDS011;40599;53.132;6.090;2023-03-12T09:34:21;24.25;;;13.93;;
54699;SDS011;40599;53.132;6.090;2023-03-12T09:36:48;19.05;;;13.43;;
54699;SDS011;40599;53.132;6.090;2023-03-12T09:39:14;16.77;;;13.07;;
54699;SDS011;40599;53.132;6.090;2023-03-12T09:41:42;22.30;;;13.65;;
54699;SDS011;40599;53.132;6.090;2023-03-12T09:46:40;19.17;;;13.57;;
54699;SDS011;40599;53.132;6.090;2023-03-12T09:49:18;20.20;;;12.77;;
54699;SDS011;40599;53.132;6.090;2023-03-12T09:51:46;21.10;;;12.82;;
54699;SDS011;40599;53.132;6.090;2023-03-12T09:56:49;17.08;;;13.20;;
54699;SDS011;40599;53.132;6.090;2023-03-12T09:59:16;16.40;;;12.20;;
54699;SDS011;40599;53.132;6.090;2023-03-12T10:09:33;15.88;;;13.35;;
54699;SDS011;40599;53.132;6.090;2023-03-12T10:15:26;19.40;;;12.75;;
54699;SDS011;40599;53.132;6.090;2023-03-12T10:23:20;19.98;;;14.10;;
54699;SDS011;40599;53.132;6.090;2023-03-12T10:28:17;17.33;;;13.25;;
54699;SDS011;40599;53.132;6.090;2023-03-12T10:30:46;18.40;;;13.45;;
54699;SDS011;40599;53.132;6.090;2023-03-12T10:33:15;16.60;;;13.35;;
54699;SDS011;40599;53.132;6.090;2023-03-12T10:35:42;20.02;;;13.30;;
54699;SDS011;40599;53.132;6.090;2023-03-12T10:38:10;22.30;;;14.15;;
54699;SDS011;40599;53.132;6.090;2023-03-12T10:40:39;20.23;;;14.50;;
54699;SDS011;40599;53.132;6.090;2023-03-12T10:43:05;23.02;;;13.98;;
54699;SDS011;40599;53.132;6.090;2023-03-12T10:48:19;25.33;;;15.73;;
54699;SDS011;40599;53.132;6.090;2023-03-12T10:53:34;24.25;;;15.40;;
54699;SDS011;40599;53.132;6.090;2023-03-12T10:56:03;21.77;;;15.40;;
54699;SDS011;40599;53.132;6.090;2023-03-12T10:58:30;25.85;;;16.75;;
54699;SDS011;40599;53.132;6.090;2023-03-12T11:03:23;23.45;;;15.00;;
54699;SDS011;40599;53.132;6.090;2023-03-12T11:05:51;27.00;;;15.77;;
54699;SDS011;40599;53.132;6.090;2023-03-12T11:08:26;24.42;;;16.35;;
54699;SDS011;40599;53.132;6.090;2023-03-12T11:10:53;23.08;;;16.25;;
54699;SDS011;40599;53.132;6.090;2023-03-12T11:13:23;23.73;;;16.55;;
54699;SDS011;40599;53.132;6.090;2023-03-12T11:15:51;26.40;;;17.10;;
54699;SDS011;40599;53.132;6.090;2023-03-12T11:20:43;29.05;;;17.63;;
54699;SDS011;40599;53.132;6.090;2023-03-12T11:23:14;23.25;;;17.17;;
54699;SDS011;40599;53.132;6.090;2023-03-12T11:25:40;26.70;;;17.77;;
54699;SDS011;40599;53.132;6.090;2023-03-12T11:28:09;30.00;;;16.75;;
54699;SDS011;40599;53.132;6.090;2023-03-12T11:30:40;26.80;;;17.42;;
54699;SDS011;40599;53.132;6.090;2023-03-12T11:33:08;31.25;;;17.50;;
54699;SDS011;40599;53.132;6.090;2023-03-12T11:35:40;27.23;;;18.40;;
54699;SDS011;40599;53.132;6.090;2023-03-12T11:38:15;28.95;;;18.58;;
54699;SDS011;40599;53.132;6.090;2023-03-12T11:43:32;28.45;;;18.00;;
54699;SDS011;40599;53.132;6.090;2023-03-12T11:48:55;27.73;;;18.45;;
54699;SDS011;40599;53.132;6.090;2023-03-12T11:56:29;30.58;;;19.67;;
54699;SDS011;40599;53.132;6.090;2023-03-12T11:59:00;30.92;;;18.80;;
54699;SDS011;40599;53.132;6.090;2023-03-12T12:01:46;34.70;;;20.23;;
54699;SDS011;40599;53.132;6.090;2023-03-12T12:14:44;38.75;;;20.92;;
54699;SDS011;40599;53.132;6.090;2023-03-12T12:17:24;40.30;;;20.83;;
54699;SDS011;40599;53.132;6.090;2023-03-12T12:25:33;39.13;;;20.17;;
54699;SDS011;40599;53.132;6.090;2023-03-12T12:33:16;43.13;;;21.75;;
54699;SDS011;40599;53.132;6.090;2023-03-12T12:35:46;45.38;;;19.70;;
54699;SDS011;40599;53.132;6.090;2023-03-12T12:40:43;52.15;;;19.95;;
54699;SDS011;40599;53.132;6.090;2023-03-12T12:45:37;39.67;;;16.60;;
54699;SDS011;40599;53.132;6.090;2023-03-12T12:48:06;48.40;;;15.30;;
54699;SDS011;40599;53.132;6.090;2023-03-12T12:50:35;47.33;;;14.00;;
54699;SDS011;40599;53.132;6.090;2023-03-12T12:53:04;51.85;;;14.43;;
54699;SDS011;40599;53.132;6.090;2023-03-12T12:55:57;34.03;;;10.52;;
54699;SDS011;40599;53.132;6.090;2023-03-12T13:00:50;45.70;;;10.75;;
54699;SDS011;40599;53.132;6.090;2023-03-12T13:03:18;42.67;;;10.10;;
54699;SDS011;40599;53.132;6.090;2023-03-12T13:13:43;40.85;;;10.50;;
54699;SDS011;40599;53.132;6.090;2023-03-12T13:25:06;31.77;;;10.00;;
54699;SDS011;40599;53.132;6.090;2023-03-12T13:27:11;33.45;;;9.35;;
54699;SDS011;40599;53.132;6.090;2023-03-12T13:29:40;41.70;;;8.80;;
54699;SDS011;40599;53.132;6.090;2023-03-12T13:32:34;30.90;;;7.95;;
54699;SDS011;40599;53.132;6.090;2023-03-12T13:34:56;36.20;;;8.45;;
54699;SDS011;40599;53.132;6.090;2023-03-12T13:37:57;33.95;;;8.73;;
54699;SDS011;40599;53.132;6.090;2023-03-12T13:48:13;33.80;;;8.93;;
54699;SDS011;40599;53.132;6.090;2023-03-12T13:50:47;36.20;;;9.40;;
54699;SDS011;40599;53.132;6.090;2023-03-12T13:53:19;31.75;;;8.73;;
54699;SDS011;40599;53.132;6.090;2023-03-12T13:55:48;33.70;;;9.50;;
54699;SDS011;40599;53.132;6.090;2023-03-12T13:58:25;38.95;;;9.05;;
54699;SDS011;40599;53.132;6.090;2023-03-12T14:03:25;35.95;;;9.10;;
54699;SDS011;40599;53.132;6.090;2023-03-12T14:06:04;31.35;;;8.10;;
54699;SDS011;40599;53.132;6.090;2023-03-12T14:16:44;44.30;;;8.93;;
54699;SDS011;40599;53.132;6.090;2023-03-12T14:19:13;40.47;;;8.50;;
54699;SDS011;40599;53.132;6.090;2023-03-12T14:21:42;41.00;;;8.82;;
54699;SDS011;40599;53.132;6.090;2023-03-12T14:24:15;26.63;;;8.27;;
54699;SDS011;40599;53.132;6.090;2023-03-12T14:26:43;32.08;;;8.23;;
54699;SDS011;40599;53.132;6.090;2023-03-12T14:29:20;37.35;;;8.10;;
54699;SDS011;40599;53.132;6.090;2023-03-12T14:31:48;36.92;;;9.45;;
54699;SDS011;40599;53.132;6.090;2023-03-12T14:34:18;41.75;;;9.05;;
54699;SDS011;40599;53.132;6.090;2023-03-12T14:36:51;38.80;;;8.23;;
54699;SDS011;40599;53.132;6.090;2023-03-12T14:42:03;31.85;;;7.85;;
54699;SDS011;40599;53.132;6.090;2023-03-12T14:44:30;28.58;;;6.95;;
54699;SDS011;40599;53.132;6.090;2023-03-12T14:47:01;39.83;;;8.02;;
54699;SDS011;40599;53.132;6.090;2023-03-12T14:49:28;39.08;;;7.97;;
54699;SDS011;40599;53.132;6.090;2023-03-12T14:51:55;41.97;;;9.27;;
54699;SDS011;40599;53.132;6.090;2023-03-12T14:54:23;46.05;;;8.70;;
54699;SDS011;40599;53.132;6.090;2023-03-12T14:56:49;36.35;;;8.55;;
54699;SDS011;40599;53.132;6.090;2023-03-12T14:59:34;39.72;;;7.55;;
54699;SDS011;40599;53.132;6.090;2023-03-12T15:02:06;45.97;;;9.35;;
54699;SDS011;40599;53.132;6.090;2023-03-12T15:04:35;36.72;;;9.25;;
54699;SDS011;40599;53.132;6.090;2023-03-12T15:07:03;42.47;;;7.72;;
54699;SDS011;40599;53.132;6.090;2023-03-12T15:09:32;48.00;;;10.25;;
54699;SDS011;40599;53.132;6.090;2023-03-12T15:12:03;30.70;;;8.40;;
54699;SDS011;40599;53.132;6.090;2023-03-12T15:14:37;41.08;;;8.55;;
54699;SDS011;40599;53.132;6.090;2023-03-12T15:17:04;43.08;;;9.15;;
54699;SDS011;40599;53.132;6.090;2023-03-12T15:19:33;44.20;;;8.73;;
54699;SDS011;40599;53.132;6.090;2023-03-12T15:22:00;46.53;;;8.75;;
54699;SDS011;40599;53.132;6.090;2023-03-12T15:24:27;44.17;;;7.97;;
54699;SDS011;40599;53.132;6.090;2023-03-12T15:26:54;45.58;;;8.23;;
54699;SDS011;40599;53.132;6.090;2023-03-12T15:31:51;48.22;;;8.13;;
54699;SDS011;40599;53.132;6.090;2023-03-12T15:36:56;43.25;;;8.38;;
54699;SDS011;40599;53.132;6.090;2023-03-12T15:42:16;40.58;;;8.50;;
54699;SDS011;40599;53.132;6.090;2023-03-12T15:44:45;38.25;;;8.48;;
54699;SDS011;40599;53.132;6.090;2023-03-12T15:47:13;43.88;;;9.15;;
54699;SDS011;40599;53.132;6.090;2023-03-12T15:49:40;44.22;;;8.60;;
54699;SDS011;40599;53.132;6.090;2023-03-12T15:57:31;45.47;;;9.90;;
54699;SDS011;40599;53.132;6.090;2023-03-12T16:05:32;37.28;;;8.32;;
54699;SDS011;40599;53.132;6.090;2023-03-12T16:08:13;44.15;;;8.77;;
54699;SDS011;40599;53.132;6.090;2023-03-12T16:10:40;36.30;;;8.45;;
54699;SDS011;40599;53.132;6.090;2023-03-12T16:13:08;44.28;;;9.20;;
54699;SDS011;40599;53.132;6.090;2023-03-12T16:15:36;48.55;;;10.57;;
54699;SDS011;40599;53.132;6.090;2023-03-12T16:18:02;48.50;;;9.25;;
54699;SDS011;40599;53.132;6.090;2023-03-12T16:20:28;39.58;;;8.57;;
54699;SDS011;40599;53.132;6.090;2023-03-12T16:22:55;40.90;;;8.32;;
54699;SDS011;40599;53.132;6.090;2023-03-12T16:25:21;41.03;;;8.70;;
54699;SDS011;40599;53.132;6.090;2023-03-12T16:27:50;44.17;;;9.63;;
54699;SDS011;40599;53.132;6.090;2023-03-12T16:30:19;44.50;;;8.90;;
54699;SDS011;40599;53.132;6.090;2023-03-12T16:32:47;45.88;;;9.25;;
54699;SDS011;40599;53.132;6.090;2023-03-12T16:35:15;40.63;;;9.15;;
54699;SDS011;40599;53.132;6.090;2023-03-12T16:37:41;44.95;;;11.30;;
54699;SDS011;40599;53.132;6.090;2023-03-12T16:40:08;43.83;;;8.35;;
54699;SDS011;40599;53.132;6.090;2023-03-12T16:42:34;44.65;;;9.30;;
54699;SDS011;40599;53.132;6.090;2023-03-12T16:45:01;42.63;;;9.00;;
54699;SDS011;40599;53.132;6.090;2023-03-12T16:47:27;34.38;;;7.05;;
54699;SDS011;40599;53.132;6.090;2023-03-12T16:49:55;42.00;;;9.27;;
54699;SDS011;40599;53.132;6.090;2023-03-12T16:52:22;40.63;;;9.20;;
54699;SDS011;40599;53.132;6.090;2023-03-12T16:54:51;44.60;;;9.05;;
54699;SDS011;40599;53.132;6.090;2023-03-12T16:57:19;39.38;;;8.80;;
54699;SDS011;40599;53.132;6.090;2023-03-12T16:59:48;43.72;;;9.38;;
54699;SDS011;40599;53.132;6.090;2023-03-12T17:02:15;46.55;;;8.82;;